createdAt,value
2023-04-19T00:01:41.421Z,98014.09
2023-04-19T00:04:28.501Z,98018.81
2023-04-19T00:07:16.988Z,98009.53
2023-04-19T00:10:04.441Z,98010.25
2023-04-19T00:12:51.545Z,98002.97
2023-04-19T00:15:38.860Z,98005.16
2023-04-19T00:18:25.810Z,97997.91
2023-04-19T00:21:13.069Z,97999.34
2023-04-19T00:24:01.977Z,97993.31
2023-04-19T00:26:48.925Z,97991.91
2023-04-19T00:29:35.846Z,97990.25
2023-04-19T00:32:22.818Z,97995.53
2023-04-19T00:35:10.003Z,97982.03
2023-04-19T00:37:57.018Z,97975.50
2023-04-19T00:40:43.956Z,97974.44
2023-04-19T00:43:30.870Z,97976.06
2023-04-19T00:46:17.840Z,97969.69
2023-04-19T00:49:04.929Z,97972.22
2023-04-19T00:51:52.197Z,97970.03
2023-04-19T00:54:41.198Z,97967.50
2023-04-19T00:57:29.661Z,97965.13
2023-04-19T01:00:16.917Z,97965.66
2023-04-19T01:03:04.270Z,97957.13
2023-04-19T01:05:51.322Z,97961.69
2023-04-19T01:08:39.587Z,97954.38
2023-04-19T01:11:28.838Z,97961.63
2023-04-19T01:14:15.978Z,97954.75
2023-04-19T01:17:03.098Z,97949.84
2023-04-19T01:19:50.008Z,97951.25
2023-04-19T01:22:37.978Z,97939.28
2023-04-19T01:25:24.913Z,97934.38
2023-04-19T01:28:12.095Z,97925.66
2023-04-19T01:30:59.084Z,97927.06
2023-04-19T01:33:46.174Z,97924.88
2023-04-19T01:36:33.083Z,97919.28
2023-04-19T01:39:20.172Z,97922.75
2023-04-19T01:42:07.093Z,97913.31
2023-04-19T01:44:54.018Z,97911.31
2023-04-19T01:47:41.155Z,97912.38
2023-04-19T01:50:28.084Z,97905.41
2023-04-19T01:53:14.990Z,97901.56
2023-04-19T01:56:01.936Z,97908.09
2023-04-19T01:58:48.846Z,97906.66
2023-04-19T02:01:35.762Z,97903.56
2023-04-19T02:04:22.735Z,97901.19
2023-04-19T02:07:09.792Z,97903.19
2023-04-19T02:09:56.743Z,97902.84
2023-04-19T02:12:43.674Z,97901.22
2023-04-19T02:15:30.832Z,97895.59
2023-04-19T02:18:18.414Z,97894.50
2023-04-19T02:21:06.434Z,97896.69
2023-04-19T02:23:53.354Z,97893.44
2023-04-19T02:26:40.780Z,97893.63
2023-04-19T02:29:27.920Z,97888.72
2023-04-19T02:32:14.893Z,97890.19
2023-04-19T02:35:01.773Z,97871.69
2023-04-19T02:37:48.725Z,97877.25
2023-04-19T02:40:35.663Z,97866.16
2023-04-19T02:43:22.593Z,97874.53
2023-04-19T02:46:10.475Z,97877.81
2023-04-19T02:48:57.500Z,97868.53
2023-04-19T02:51:44.531Z,97868.53
2023-04-19T02:54:33.237Z,97858.34
2023-04-19T02:57:20.215Z,97872.19
2023-04-19T03:00:08.963Z,97863.84
2023-04-19T03:02:56.836Z,97865.22
2023-04-19T03:05:43.871Z,97864.72
2023-04-19T03:08:30.787Z,97855.97
2023-04-19T03:11:18.303Z,97854.38
2023-04-19T03:14:05.226Z,97858.22
2023-04-19T03:16:52.287Z,97854.91
2023-04-19T03:19:39.207Z,97853.84
2023-04-19T03:22:26.095Z,97848.94
2023-04-19T03:25:13.559Z,97849.28
2023-04-19T03:28:00.565Z,97846.94
2023-04-19T03:30:47.506Z,97837.69
2023-04-19T03:33:34.443Z,97837.84
2023-04-19T03:36:21.682Z,97846.06
2023-04-19T03:39:08.569Z,97837.88
2023-04-19T03:41:55.569Z,97838.22
2023-04-19T03:44:42.573Z,97829.31
2023-04-19T03:47:29.551Z,97825.09
2023-04-19T03:50:16.542Z,97828.72
2023-04-19T03:53:05.395Z,97825.66
2023-04-19T03:55:52.664Z,97821.13
2023-04-19T03:58:40.965Z,97821.50
2023-04-19T04:01:29.166Z,97819.47
2023-04-19T04:04:16.602Z,97825.59
2023-04-19T04:07:03.754Z,97825.44
2023-04-19T04:09:50.687Z,97824.88
2023-04-19T04:12:37.648Z,97819.59
2023-04-19T04:15:24.660Z,97817.25
2023-04-19T04:18:11.620Z,97820.72
2023-04-19T04:20:58.550Z,97820.69
2023-04-19T04:23:45.668Z,97833.06
2023-04-19T04:26:34.020Z,97826.53
2023-04-19T04:29:20.971Z,97833.81
2023-04-19T04:32:10.387Z,97832.00
2023-04-19T04:34:57.610Z,97826.78
2023-04-19T04:37:44.545Z,97834.75
2023-04-19T04:40:31.901Z,97833.47
2023-04-19T04:43:19.062Z,97834.97
2023-04-19T04:46:06.259Z,97844.38
2023-04-19T04:48:53.663Z,97831.16
2023-04-19T04:51:40.808Z,97830.81
2023-04-19T04:54:27.740Z,97832.63
2023-04-19T04:57:14.675Z,97828.44
2023-04-19T05:00:01.702Z,97817.56
2023-04-19T05:02:48.868Z,97818.31
2023-04-19T05:05:35.893Z,97824.13
2023-04-19T05:08:22.838Z,97816.13
2023-04-19T05:11:09.842Z,97816.50
2023-04-19T05:13:56.772Z,97816.69
2023-04-19T05:16:43.722Z,97816.31
2023-04-19T05:19:30.696Z,97819.22
2023-04-19T05:22:17.617Z,97819.41
2023-04-19T05:25:05.500Z,97815.97
2023-04-19T05:27:52.740Z,97818.34
2023-04-19T05:30:39.883Z,97801.06
2023-04-19T05:33:26.806Z,97810.00
2023-04-19T05:36:13.832Z,97808.72
2023-04-19T05:39:01.120Z,97807.06
2023-04-19T05:41:48.347Z,97800.53
2023-04-19T05:44:35.244Z,97798.53
2023-04-19T05:47:22.198Z,97786.91
2023-04-19T05:50:09.651Z,97790.53
2023-04-19T05:52:56.591Z,97791.44
2023-04-19T05:55:45.528Z,97784.19
2023-04-19T05:58:32.513Z,97787.47
2023-04-19T06:01:19.416Z,97780.53
2023-04-19T06:04:06.499Z,97778.72
2023-04-19T06:06:53.500Z,97784.91
2023-04-19T06:09:40.678Z,97782.53
2023-04-19T06:12:27.846Z,97779.81
2023-04-19T06:15:14.858Z,97783.44
2023-04-19T06:18:02.109Z,97784.91
2023-04-19T06:20:49.094Z,97784.00
2023-04-19T06:23:36.013Z,97773.09
2023-04-19T06:26:22.964Z,97775.25
2023-04-19T06:29:09.923Z,97773.78
2023-04-19T06:31:57.018Z,97770.16
2023-04-19T06:34:44.019Z,97774.50
2023-04-19T06:37:30.958Z,97770.91
2023-04-19T06:40:17.976Z,97768.69
2023-04-19T06:43:05.765Z,97768.69
2023-04-19T06:46:04.591Z,97762.13
2023-04-19T06:48:51.580Z,97763.34
2023-04-19T06:51:39.568Z,97760.09
2023-04-19T06:54:26.490Z,97763.69
2023-04-19T06:57:13.440Z,97756.19
2023-04-19T07:00:00.596Z,97756.00
2023-04-19T07:02:49.044Z,97757.06
2023-04-19T07:05:36.469Z,97757.06
2023-04-19T07:08:26.310Z,97744.72
2023-04-19T07:11:17.025Z,97754.13
2023-04-19T07:14:04.011Z,97742.19
2023-04-19T07:16:52.622Z,97736.19
2023-04-19T07:19:39.685Z,97735.34
2023-04-19T07:22:26.618Z,97727.00
2023-04-19T07:25:14.650Z,97728.09
2023-04-19T07:28:01.547Z,97730.16
2023-04-19T07:30:48.556Z,97725.47
2023-04-19T07:33:35.916Z,97725.34
2023-04-19T07:36:23.121Z,97725.53
2023-04-19T07:39:10.069Z,97717.00
2023-04-19T07:41:57.001Z,97711.16
2023-04-19T07:44:43.928Z,97712.97
2023-04-19T07:47:31.418Z,97717.13
2023-04-19T07:50:18.632Z,97710.91
2023-04-19T07:53:05.542Z,97712.19
2023-04-19T07:55:52.903Z,97706.50
2023-04-19T07:58:41.309Z,97713.84
2023-04-19T08:01:31.374Z,97711.91
2023-04-19T08:04:20.819Z,97715.00
2023-04-19T08:07:09.517Z,97728.31
2023-04-19T08:09:56.504Z,97712.50
2023-04-19T08:12:53.576Z,97713.53
2023-04-19T08:16:24.360Z,97717.53
2023-04-19T08:18:57.391Z,97719.53
2023-04-19T08:21:45.708Z,97715.47
2023-04-19T08:24:32.715Z,97719.88
2023-04-19T08:27:20.245Z,97712.41
2023-04-19T08:30:08.295Z,97713.78
2023-04-19T08:32:57.119Z,97718.41
2023-04-19T08:35:45.712Z,97709.69
2023-04-19T08:38:32.697Z,97708.28
2023-04-19T08:41:20.571Z,97713.91
2023-04-19T08:44:08.683Z,97701.00
2023-04-19T08:46:58.840Z,97699.94
2023-04-19T08:49:51.209Z,97701.03
2023-04-19T08:52:54.855Z,97703.06
2023-04-19T08:56:03.421Z,97698.81
2023-04-19T08:59:03.987Z,97690.41
2023-04-19T09:02:01.592Z,97695.72
2023-04-19T09:04:48.753Z,97703.78
2023-04-19T09:07:35.872Z,97691.75
2023-04-19T09:10:22.949Z,97687.88
2023-04-19T09:13:09.854Z,97682.44
2023-04-19T09:16:04.790Z,97684.78
2023-04-19T09:19:08.202Z,97669.63
2023-04-19T09:22:15.369Z,97681.63
2023-04-19T09:25:34.369Z,97674.84
2023-04-19T09:28:13.497Z,97672.66
2023-04-19T09:31:35.402Z,97672.69
2023-04-19T09:34:21.009Z,97668.25
2023-04-19T09:37:21.501Z,97668.41
2023-04-19T09:40:24.367Z,97665.50
2023-04-19T09:46:04.907Z,97659.41
2023-04-19T09:48:51.838Z,97657.19
2023-04-19T09:51:42.657Z,97655.78
2023-04-19T09:54:32.471Z,97658.88
2023-04-19T09:57:19.737Z,97657.06
2023-04-19T10:00:09.329Z,97659.81
2023-04-19T10:02:58.510Z,97656.53
2023-04-19T10:05:45.978Z,97667.81
2023-04-19T10:08:33.123Z,97658.03
2023-04-19T10:11:22.048Z,97654.94
2023-04-19T10:14:11.016Z,97656.75
2023-04-19T10:16:58.323Z,97654.00
2023-04-19T10:19:47.317Z,97650.91
2023-04-19T10:22:38.786Z,97655.81
2023-04-19T10:25:30.276Z,97654.91
2023-04-19T10:28:17.683Z,97645.06
2023-04-19T10:31:05.449Z,97643.22
2023-04-19T10:33:53.408Z,97640.47
2023-04-19T10:36:40.493Z,97639.00
2023-04-19T10:39:44.429Z,97638.09
2023-04-19T10:43:08.834Z,97641.91
2023-04-19T10:46:01.413Z,97628.53
2023-04-19T10:48:58.463Z,97636.22
2023-04-19T10:51:52.696Z,97634.75
2023-04-19T10:54:39.879Z,97635.84
2023-04-19T10:57:27.704Z,97645.25
2023-04-19T11:00:21.798Z,97638.00
2023-04-19T11:04:06.305Z,97636.91
2023-04-19T11:07:05.030Z,97630.22
2023-04-19T11:09:52.728Z,97628.41
2023-04-19T11:12:42.921Z,97628.63
2023-04-19T11:15:29.847Z,97630.97
2023-04-19T11:18:19.716Z,97632.97
2023-04-19T11:21:06.709Z,97632.41
2023-04-19T11:24:07.596Z,97628.75
2023-04-19T11:26:56.991Z,97623.84
2023-04-19T11:29:43.976Z,97627.06
2023-04-19T11:32:31.029Z,97618.66
2023-04-19T11:35:25.632Z,97624.81
2023-04-19T11:38:13.204Z,97622.25
2023-04-19T11:41:04.532Z,97622.63
2023-04-19T11:43:52.099Z,97613.56
2023-04-19T11:46:39.086Z,97616.25
2023-04-19T11:49:27.982Z,97618.09
2023-04-19T11:52:22.436Z,97620.22
2023-04-19T11:55:18.906Z,97623.25
2023-04-19T11:58:11.726Z,97625.41
2023-04-19T12:01:06.685Z,97619.59
2023-04-19T12:03:56.556Z,97626.69
2023-04-19T12:06:43.743Z,97621.97
2023-04-19T12:09:32.895Z,97615.03
2023-04-19T12:12:32.572Z,97615.34
2023-04-19T12:15:20.829Z,97620.44
2023-04-19T12:18:09.286Z,97615.41
2023-04-19T12:20:56.241Z,97614.44
2023-04-19T12:23:43.099Z,97608.25
2023-04-19T12:26:30.548Z,97610.00
2023-04-19T12:29:17.658Z,97600.88
2023-04-19T12:32:05.589Z,97608.31
2023-04-19T12:34:52.619Z,97607.63
2023-04-19T12:37:39.568Z,97602.94
2023-04-19T12:40:27.521Z,97602.19
2023-04-19T12:43:14.447Z,97604.06
2023-04-19T12:46:01.625Z,97605.72
2023-04-19T12:48:48.630Z,97613.84
2023-04-19T12:51:36.162Z,97613.69
2023-04-19T12:54:23.064Z,97614.78
2023-04-19T12:57:09.909Z,97613.88
2023-04-19T12:59:56.795Z,97607.31
2023-04-19T13:02:43.899Z,97611.69
2023-04-19T13:05:30.977Z,97612.56
2023-04-19T13:08:28.150Z,97621.66
2023-04-19T13:11:17.702Z,97611.13
2023-04-19T13:14:04.681Z,97620.19
2023-04-19T13:16:51.549Z,97613.22
2023-04-19T13:19:38.537Z,97619.75
2023-04-19T13:22:26.740Z,97626.66
2023-04-19T13:25:13.673Z,97620.56
2023-04-19T13:28:00.534Z,97624.59
2023-04-19T13:30:47.447Z,97624.41
2023-04-19T13:33:34.548Z,97618.06
2023-04-19T13:36:21.710Z,97621.31
2023-04-19T13:39:08.722Z,97624.03
2023-04-19T13:41:55.719Z,97623.66
2023-04-19T13:44:42.701Z,97619.34
2023-04-19T13:47:29.629Z,97623.34
2023-04-19T13:50:16.595Z,97620.25
2023-04-19T13:53:03.518Z,97622.41
2023-04-19T13:55:51.064Z,97628.19
2023-04-19T13:58:38.028Z,97631.47
2023-04-19T14:01:25.351Z,97633.28
2023-04-19T14:04:12.673Z,97639.28
2023-04-19T14:06:59.823Z,97625.13
2023-04-19T14:09:46.733Z,97632.41
2023-04-19T14:12:33.708Z,97631.13
2023-04-19T14:15:21.191Z,97625.31
2023-04-19T14:18:08.136Z,97630.38
2023-04-19T14:20:55.443Z,97624.03
2023-04-19T14:23:42.390Z,97624.03
2023-04-19T14:26:29.295Z,97626.94
2023-04-19T14:29:16.435Z,97630.22
2023-04-19T14:32:17.256Z,97625.84
2023-04-19T14:35:13.397Z,97628.19
2023-04-19T14:38:00.543Z,97620.94
2023-04-19T14:40:47.476Z,97626.03
2023-04-19T14:43:34.485Z,97626.94
2023-04-19T14:46:21.480Z,97632.22
2023-04-19T14:49:08.371Z,97631.28
2023-04-19T14:51:55.390Z,97637.44
2023-04-19T14:54:43.244Z,97630.72
2023-04-19T14:57:30.258Z,97636.16
2023-04-19T15:00:17.665Z,97642.13
2023-04-19T15:03:05.071Z,97645.53
2023-04-19T15:05:52.017Z,97648.50
2023-04-19T15:08:39.103Z,97646.41
2023-04-19T15:11:26.075Z,97655.22
2023-04-19T15:14:13.048Z,97651.09
2023-04-19T15:17:00.191Z,97659.56
2023-04-19T15:19:47.159Z,97660.97
2023-04-19T15:22:34.248Z,97668.28
2023-04-19T15:25:21.301Z,97667.06
2023-04-19T15:28:08.378Z,97669.44
2023-04-19T15:31:04.335Z,97672.34
2023-04-19T15:33:51.615Z,97663.19
2023-04-19T15:36:38.575Z,97662.72
2023-04-19T15:39:25.722Z,97665.84
2023-04-19T15:42:12.778Z,97673.59
2023-04-19T15:44:59.651Z,97673.38
2023-04-19T15:47:46.583Z,97683.31
2023-04-19T15:50:36.446Z,97686.50
2023-04-19T15:53:23.295Z,97681.38
2023-04-19T15:56:10.560Z,97682.75
2023-04-19T15:58:57.491Z,97689.84
2023-04-19T16:01:44.430Z,97695.56
2023-04-19T16:04:32.172Z,97691.44
2023-04-19T16:07:19.184Z,97692.34
2023-04-19T16:10:07.274Z,97694.94
2023-04-19T16:12:54.193Z,97694.44
2023-04-19T16:15:44.885Z,97691.19
2023-04-19T16:18:31.769Z,97686.84
2023-04-19T16:21:18.687Z,97695.91
2023-04-19T16:24:06.217Z,97699.22
2023-04-19T16:26:53.176Z,97691.56
2023-04-19T16:29:40.073Z,97694.63
2023-04-19T16:32:27.165Z,97689.91
2023-04-19T16:35:14.261Z,97690.50
2023-04-19T16:38:04.324Z,97696.72
2023-04-19T16:40:51.342Z,97689.63
2023-04-19T16:43:38.308Z,97695.72
2023-04-19T16:46:25.268Z,97694.84
2023-04-19T16:49:12.306Z,97692.47
2023-04-19T16:51:59.182Z,97692.47
2023-04-19T16:54:46.093Z,97695.31
2023-04-19T16:57:33.099Z,97694.19
2023-04-19T17:00:20.457Z,97700.03
2023-04-19T17:03:09.344Z,97701.44
2023-04-19T17:05:57.358Z,97702.38
2023-04-19T17:08:44.219Z,97702.44
2023-04-19T17:11:32.702Z,97699.94
2023-04-19T17:14:19.529Z,97707.16
2023-04-19T17:17:06.604Z,97713.13
2023-04-19T17:19:56.018Z,97699.72
2023-04-19T17:22:43.763Z,97707.50
2023-04-19T17:25:30.713Z,97701.66
2023-04-19T17:28:17.905Z,97707.44
2023-04-19T17:31:05.034Z,97708.41
2023-04-19T17:33:52.032Z,97711.81
2023-04-19T17:36:38.921Z,97704.03
2023-04-19T17:39:27.907Z,97711.25
2023-04-19T17:42:14.899Z,97714.09
2023-04-19T17:45:01.824Z,97708.78
2023-04-19T17:47:48.767Z,97714.16
2023-04-19T17:50:36.047Z,97717.31
2023-04-19T17:53:23.037Z,97710.25
2023-04-19T17:56:10.006Z,97704.31
2023-04-19T17:58:57.582Z,97707.63
2023-04-19T18:01:44.517Z,97705.72
2023-04-19T18:04:31.698Z,97707.28
2023-04-19T18:07:18.691Z,97704.19
2023-04-19T18:10:06.622Z,97701.06
2023-04-19T18:12:53.889Z,97708.09
2023-04-19T18:15:40.790Z,97702.13
2023-04-19T18:18:27.726Z,97705.38
2023-04-19T18:21:14.854Z,97711.25
2023-04-19T18:24:01.894Z,97713.66
2023-04-19T18:26:48.825Z,97713.75
2023-04-19T18:29:35.904Z,97718.75
2023-04-19T18:32:26.949Z,97716.69
2023-04-19T18:35:13.982Z,97711.47
2023-04-19T18:38:01.632Z,97717.72
2023-04-19T18:40:48.610Z,97719.28
2023-04-19T18:43:36.193Z,97721.50
2023-04-19T18:46:24.240Z,97720.22
2023-04-19T18:49:11.302Z,97716.88
2023-04-19T18:51:59.309Z,97706.88
2023-04-19T18:54:46.431Z,97710.09
2023-04-19T18:57:34.903Z,97717.72
2023-04-19T19:00:22.252Z,97716.78
2023-04-19T19:03:19.207Z,97714.31
2023-04-19T19:06:16.373Z,97717.53
2023-04-19T19:09:03.921Z,97723.91
2023-04-19T19:11:56.432Z,97722.31
2023-04-19T19:14:43.678Z,97723.72
2023-04-19T19:17:30.637Z,97731.72
2023-04-19T19:20:19.089Z,97735.69
2023-04-19T19:23:06.142Z,97738.59
2023-04-19T19:25:53.061Z,97735.25
2023-04-19T19:28:40.509Z,97742.25
2023-04-19T19:31:27.447Z,97744.34
2023-04-19T19:34:25.792Z,97744.56
2023-04-19T19:37:16.830Z,97734.63
2023-04-19T19:40:06.657Z,97739.13
2023-04-19T19:42:53.676Z,97731.41
2023-04-19T19:45:41.600Z,97733.81
2023-04-19T19:48:30.229Z,97733.06
2023-04-19T19:51:47.578Z,97728.19
2023-04-19T19:54:24.241Z,97722.00
2023-04-19T19:58:08.012Z,97720.22
2023-04-19T20:00:45.150Z,97712.94
2023-04-19T20:03:35.996Z,97716.28
2023-04-19T20:09:13.993Z,97708.13
2023-04-19T20:12:02.028Z,97712.50
2023-04-19T20:14:49.056Z,97701.13
2023-04-19T20:17:38.146Z,97708.00
2023-04-19T20:20:25.252Z,97711.66
2023-04-19T20:23:12.434Z,97707.47
2023-04-19T20:26:01.146Z,97712.38
2023-04-19T20:28:48.112Z,97716.78
2023-04-19T20:31:35.064Z,97709.06
2023-04-19T20:34:22.326Z,97713.22
2023-04-19T20:37:09.733Z,97711.44
2023-04-19T20:39:58.468Z,97712.50
2023-04-19T20:42:45.464Z,97708.13
2023-04-19T20:45:32.415Z,97705.00
2023-04-19T20:48:19.367Z,97712.84
2023-04-19T20:51:06.283Z,97725.34
2023-04-19T20:53:53.260Z,97726.44
2023-04-19T20:56:40.258Z,97724.63
2023-04-19T20:59:27.276Z,97728.19
2023-04-19T21:02:14.333Z,97732.03
2023-04-19T21:05:01.311Z,97726.66
2023-04-19T21:07:48.257Z,97733.31
2023-04-19T21:10:35.292Z,97730.50
2023-04-19T21:13:22.284Z,97721.00
2023-04-19T21:16:09.294Z,97716.63
2023-04-19T21:18:56.282Z,97721.94
2023-04-19T21:21:43.200Z,97727.06
2023-04-19T21:24:30.075Z,97718.28
2023-04-19T21:27:16.981Z,97716.06
2023-04-19T21:30:07.782Z,97709.44
2023-04-19T21:32:54.817Z,97709.84
2023-04-19T21:35:41.789Z,97695.47
2023-04-19T21:38:28.708Z,97697.94
2023-04-19T21:41:15.962Z,97697.84
2023-04-19T21:44:02.961Z,97702.97
2023-04-19T21:46:50.632Z,97709.31
2023-04-19T21:49:37.691Z,97710.16
2023-04-19T21:52:24.554Z,97716.81
2023-04-19T21:55:11.483Z,97719.19
2023-04-19T21:57:59.012Z,97714.09
2023-04-19T22:00:45.999Z,97720.16
2023-04-19T22:03:33.055Z,97712.31
2023-04-19T22:06:21.901Z,97721.09
2023-04-19T22:09:08.795Z,97710.47
2023-04-19T22:11:55.760Z,97711.69
2023-04-19T22:14:42.690Z,97705.69
2023-04-19T22:17:29.733Z,97699.00
2023-04-19T22:20:17.743Z,97695.00
2023-04-19T22:23:04.987Z,97701.41
2023-04-19T22:25:51.940Z,97705.16
2023-04-19T22:28:39.022Z,97698.06
2023-04-19T22:31:26.172Z,97696.91
2023-04-19T22:34:13.102Z,97697.31
2023-04-19T22:36:59.975Z,97691.91
2023-04-19T22:39:46.918Z,97697.75
2023-04-19T22:42:33.852Z,97687.75
2023-04-19T22:45:20.792Z,97687.31
2023-04-19T22:48:07.734Z,97687.09
2023-04-19T22:50:54.686Z,97686.38
2023-04-19T22:53:41.584Z,97685.03
2023-04-19T22:56:28.558Z,97685.75
2023-04-19T22:59:15.649Z,97684.78
2023-04-19T23:02:03.144Z,97682.94
2023-04-19T23:04:50.221Z,97671.94
2023-04-19T23:07:39.330Z,97679.56
2023-04-19T23:10:26.801Z,97682.69
2023-04-19T23:13:15.779Z,97679.84
2023-04-19T23:16:03.050Z,97670.97
2023-04-19T23:18:50.499Z,97657.53
2023-04-19T23:21:37.594Z,97652.72
2023-04-19T23:24:24.642Z,97657.81
2023-04-19T23:27:11.563Z,97652.72
2023-04-19T23:29:58.638Z,97646.91
2023-04-19T23:32:45.933Z,97639.63
2023-04-19T23:35:32.892Z,97647.84
2023-04-19T23:38:20.312Z,97650.25
2023-04-19T23:41:10.483Z,97639.53
2023-04-19T23:43:57.350Z,97629.19
2023-04-19T23:46:44.315Z,97631.38
2023-04-19T23:49:31.785Z,97634.13
2023-04-19T23:52:18.762Z,97630.78
2023-04-19T23:55:06.803Z,97634.94
2023-04-19T23:57:53.752Z,97630.78
